createdAt,value
2018-05-08T00:00:18.824Z,15.87
2018-05-08T00:02:46.466Z,15.84
2018-05-08T00:05:14.025Z,15.83
2018-05-08T00:07:41.641Z,15.82
2018-05-08T00:10:09.289Z,15.76
2018-05-08T00:12:36.852Z,15.72
2018-05-08T00:15:04.462Z,15.68
2018-05-08T00:17:32.021Z,15.65
2018-05-08T00:19:59.584Z,15.61
2018-05-08T00:22:27.156Z,15.59
2018-05-08T00:24:54.725Z,15.56
2018-05-08T00:27:22.295Z,15.55
2018-05-08T00:29:49.856Z,15.54
2018-05-08T00:32:17.546Z,15.51
2018-05-08T00:34:45.108Z,15.53
2018-05-08T00:37:12.669Z,15.50
2018-05-08T00:39:40.253Z,15.46
2018-05-08T00:42:07.877Z,15.43
2018-05-08T00:44:35.492Z,15.43
2018-05-08T00:47:03.052Z,15.42
2018-05-08T00:49:30.622Z,15.39
2018-05-08T00:51:58.262Z,15.37
2018-05-08T00:54:37.686Z,15.34
2018-05-08T00:57:05.256Z,15.34
2018-05-08T00:59:32.881Z,15.33
2018-05-08T01:02:00.553Z,15.31
2018-05-08T01:04:28.174Z,15.30
2018-05-08T01:06:55.732Z,15.30
2018-05-08T01:09:23.296Z,15.31
2018-05-08T01:11:50.917Z,15.32
2018-05-08T01:14:18.582Z,15.30
2018-05-08T01:16:46.253Z,15.24
2018-05-08T01:19:13.866Z,15.20
2018-05-08T01:21:41.507Z,15.16
2018-05-08T01:24:09.126Z,15.14
2018-05-08T01:26:36.752Z,15.12
2018-05-08T01:29:04.314Z,15.10
2018-05-08T01:31:31.951Z,15.12
2018-05-08T01:33:59.489Z,15.19
2018-05-08T01:36:27.070Z,15.24
2018-05-08T01:38:54.696Z,15.32
2018-05-08T01:41:22.317Z,15.36
2018-05-08T01:43:49.929Z,15.38
2018-05-08T01:46:17.540Z,15.45
2018-05-08T01:48:45.105Z,15.59
2018-05-08T01:51:12.780Z,15.73
2018-05-08T01:53:40.425Z,15.85
2018-05-08T01:56:08.022Z,15.95
2018-05-08T01:58:35.560Z,16.06
2018-05-08T02:01:03.180Z,16.12
2018-05-08T02:03:30.806Z,16.14
2018-05-08T02:05:58.363Z,16.12
2018-05-08T02:08:25.916Z,16.16
2018-05-08T02:10:53.541Z,16.17
2018-05-08T02:13:21.157Z,16.20
2018-05-08T02:15:48.720Z,16.12
2018-05-08T02:18:16.342Z,16.15
2018-05-08T02:20:43.899Z,16.17
2018-05-08T02:23:11.525Z,16.13
2018-05-08T02:25:39.089Z,16.12
2018-05-08T02:28:06.685Z,16.13
2018-05-08T02:30:34.248Z,16.15
2018-05-08T02:33:01.856Z,16.11
2018-05-08T02:35:29.412Z,16.03
2018-05-08T02:37:56.976Z,15.95
2018-05-08T02:40:24.546Z,15.92
2018-05-08T02:42:52.104Z,15.93
2018-05-08T02:45:19.672Z,15.99
2018-05-08T02:47:47.234Z,16.02
2018-05-08T02:50:14.844Z,16.06
2018-05-08T02:52:42.444Z,16.12
2018-05-08T02:55:10.051Z,16.19
2018-05-08T02:57:37.686Z,16.22
2018-05-08T03:00:05.243Z,16.27
2018-05-08T03:02:32.873Z,16.29
2018-05-08T03:05:00.538Z,16.30
2018-05-08T03:07:28.152Z,16.26
2018-05-08T03:09:55.730Z,16.24
2018-05-08T03:12:23.285Z,16.19
2018-05-08T03:14:50.914Z,16.16
2018-05-08T03:17:18.468Z,16.11
2018-05-08T03:19:46.028Z,16.06
2018-05-08T03:22:13.712Z,15.91
2018-05-08T03:24:41.308Z,15.88
2018-05-08T03:27:08.929Z,15.88
2018-05-08T03:29:36.545Z,15.87
2018-05-08T03:32:04.145Z,15.90
2018-05-08T03:34:31.767Z,15.93
2018-05-08T03:36:59.398Z,16.01
2018-05-08T03:39:26.952Z,16.10
2018-05-08T03:41:54.620Z,16.17
2018-05-08T03:44:22.237Z,16.26
2018-05-08T03:46:49.785Z,16.32
2018-05-08T03:49:17.347Z,16.42
2018-05-08T03:51:44.913Z,16.52
2018-05-08T03:54:12.502Z,16.54
2018-05-08T03:56:40.103Z,16.73
2018-05-08T03:59:07.781Z,16.93
2018-05-08T04:01:47.045Z,17.14
2018-05-08T04:04:26.631Z,17.24
2018-05-08T04:07:05.996Z,17.34
2018-05-08T04:09:33.612Z,17.56
2018-05-08T04:12:01.180Z,17.79
2018-05-08T04:14:28.763Z,17.97
2018-05-08T04:16:56.432Z,18.09
2018-05-08T04:19:24.048Z,18.30
2018-05-08T04:21:51.672Z,18.57
2018-05-08T04:24:19.306Z,18.87
2018-05-08T04:26:46.929Z,19.01
2018-05-08T04:29:14.574Z,18.83
2018-05-08T04:31:42.149Z,18.96
2018-05-08T04:34:09.726Z,19.10
2018-05-08T04:36:37.288Z,19.08
2018-05-08T04:39:05.723Z,20.97
2018-05-08T04:41:33.348Z,23.34
2018-05-08T04:44:00.964Z,25.22
2018-05-08T04:46:28.516Z,26.89
2018-05-08T04:48:56.141Z,28.36
2018-05-08T04:51:23.700Z,28.97
2018-05-08T04:53:51.325Z,27.27
2018-05-08T04:56:18.897Z,25.78
2018-05-08T04:58:46.459Z,24.38
2018-05-08T05:01:14.140Z,23.31
2018-05-08T05:03:41.724Z,22.73
2018-05-08T05:06:09.288Z,22.32
2018-05-08T05:08:36.873Z,22.04
2018-05-08T05:11:04.485Z,21.78
2018-05-08T05:13:32.151Z,21.51
2018-05-08T05:15:59.769Z,21.23
2018-05-08T05:18:27.465Z,20.83
2018-05-08T05:20:55.098Z,20.72
2018-05-08T05:23:22.717Z,20.58
2018-05-08T05:25:50.288Z,20.62
2018-05-08T05:28:17.837Z,20.58
2018-05-08T05:30:45.451Z,20.40
2018-05-08T05:33:13.016Z,20.38
2018-05-08T05:35:40.669Z,20.29
2018-05-08T05:38:08.310Z,20.45
2018-05-08T05:40:35.873Z,20.62
2018-05-08T05:43:03.508Z,20.74
2018-05-08T05:45:31.153Z,21.01
2018-05-08T05:47:58.719Z,21.17
2018-05-08T05:50:26.336Z,21.32
2018-05-08T05:52:53.964Z,21.47
2018-05-08T05:55:21.530Z,21.64
2018-05-08T05:57:49.157Z,21.66
2018-05-08T06:00:16.732Z,21.66
2018-05-08T06:02:44.307Z,21.70
2018-05-08T06:05:11.985Z,21.67
2018-05-08T06:07:39.544Z,23.58
2018-05-08T06:10:07.156Z,25.73
2018-05-08T06:12:34.785Z,27.47
2018-05-08T06:15:02.356Z,29.06
2018-05-08T06:17:29.988Z,29.90
2018-05-08T06:19:57.556Z,29.41
2018-05-08T06:22:25.112Z,27.90
2018-05-08T06:24:52.729Z,27.07
2018-05-08T06:27:20.359Z,26.49
2018-05-08T06:29:47.920Z,26.36
2018-05-08T06:32:15.484Z,26.85
2018-05-08T06:34:43.117Z,28.24
2018-05-08T06:37:10.696Z,30.21
2018-05-08T06:39:38.265Z,31.74
2018-05-08T06:42:05.834Z,32.79
2018-05-08T06:44:33.450Z,32.50
2018-05-08T06:47:01.008Z,32.74
2018-05-08T06:49:28.572Z,33.91
2018-05-08T06:51:56.140Z,35.11
2018-05-08T06:54:23.752Z,35.03
2018-05-08T06:56:51.390Z,34.21
2018-05-08T06:59:19.008Z,32.28
2018-05-08T07:01:46.623Z,30.83
2018-05-08T07:04:14.184Z,30.06
2018-05-08T07:06:41.805Z,29.24
2018-05-08T07:09:09.469Z,28.95
2018-05-08T07:11:37.029Z,28.60
2018-05-08T07:14:04.592Z,28.44
2018-05-08T07:16:32.166Z,28.74
2018-05-08T07:18:59.780Z,28.93
2018-05-08T07:21:27.409Z,28.98
2018-05-08T07:23:55.101Z,28.60
2018-05-08T07:26:22.664Z,28.74
2018-05-08T07:28:50.229Z,28.73
2018-05-08T07:31:17.831Z,28.74
2018-05-08T07:33:45.385Z,29.09
2018-05-08T07:36:12.992Z,30.01
2018-05-08T07:38:40.548Z,30.78
2018-05-08T07:41:08.109Z,31.24
2018-05-08T07:43:35.676Z,30.74
2018-05-08T07:46:03.233Z,31.10
2018-05-08T07:48:30.808Z,30.46
2018-05-08T07:50:58.420Z,29.99
2018-05-08T07:53:26.094Z,29.31
2018-05-08T07:55:53.710Z,28.77
2018-05-08T07:58:21.268Z,28.63
2018-05-08T08:00:48.832Z,28.54
2018-05-08T08:03:16.426Z,28.41
2018-05-08T08:05:44.090Z,28.17
2018-05-08T08:08:11.641Z,27.76
2018-05-08T08:10:39.254Z,27.63
2018-05-08T08:13:06.893Z,27.57
2018-05-08T08:15:34.466Z,27.33
2018-05-08T08:18:02.082Z,27.07
2018-05-08T08:20:29.640Z,26.94
2018-05-08T08:22:57.248Z,27.13
2018-05-08T08:25:24.809Z,27.40
2018-05-08T08:27:52.360Z,27.57
2018-05-08T08:30:19.929Z,27.68
2018-05-08T08:32:47.480Z,27.51
2018-05-08T08:35:15.047Z,27.76
2018-05-08T08:37:42.665Z,28.08
2018-05-08T08:40:10.333Z,28.05
2018-05-08T08:42:37.885Z,28.41
2018-05-08T08:45:05.527Z,28.72
2018-05-08T08:47:33.132Z,28.45
2018-05-08T08:50:00.692Z,28.18
2018-05-08T08:52:28.365Z,28.15
2018-05-08T08:54:55.981Z,28.11
2018-05-08T08:57:23.538Z,28.12
2018-05-08T08:59:51.109Z,28.13
2018-05-08T09:02:18.725Z,28.22
2018-05-08T09:04:46.369Z,28.51
2018-05-08T09:07:13.969Z,28.79
2018-05-08T09:09:41.582Z,29.06
2018-05-08T09:12:09.198Z,29.25
2018-05-08T09:14:36.855Z,29.41
2018-05-08T09:17:04.425Z,29.43
2018-05-08T09:19:32.010Z,29.38
2018-05-08T09:21:59.641Z,29.18
2018-05-08T09:24:27.196Z,29.33
2018-05-08T09:26:54.804Z,29.07
2018-05-08T09:29:22.364Z,29.08
2018-05-08T09:31:49.924Z,29.07
2018-05-08T09:34:17.491Z,28.96
2018-05-08T09:39:19.086Z,29.38
2018-05-08T09:41:46.640Z,29.30
2018-05-08T09:44:14.231Z,29.21
2018-05-08T09:46:41.799Z,29.07
2018-05-08T09:49:09.452Z,28.74
2018-05-08T09:51:36.961Z,28.51
2018-05-08T09:54:04.636Z,28.43
2018-05-08T09:56:32.261Z,28.03
2018-05-08T09:58:59.817Z,28.56
2018-05-08T10:01:27.436Z,29.45
2018-05-08T10:03:55.000Z,29.84
2018-05-08T10:06:22.619Z,29.43
2018-05-08T10:08:50.185Z,28.99
2018-05-08T10:11:17.757Z,28.86
2018-05-08T10:13:45.381Z,28.81
2018-05-08T10:16:12.964Z,28.91
2018-05-08T10:18:40.525Z,29.16
2018-05-08T10:21:08.161Z,29.50
2018-05-08T10:23:35.715Z,29.25
2018-05-08T10:26:03.391Z,29.61
2018-05-08T10:28:31.010Z,29.99
2018-05-08T10:30:58.678Z,30.56
2018-05-08T10:33:26.314Z,31.45
2018-05-08T10:35:53.942Z,32.11
2018-05-08T10:38:21.516Z,32.51
2018-05-08T10:40:49.076Z,32.50
2018-05-08T10:43:16.733Z,32.10
2018-05-08T10:45:44.288Z,31.87
2018-05-08T10:48:11.909Z,32.13
2018-05-08T10:50:39.533Z,32.52
2018-05-08T10:53:07.178Z,32.74
2018-05-08T10:55:34.742Z,33.16
2018-05-08T10:58:02.308Z,33.50
2018-05-08T11:00:29.936Z,33.82
2018-05-08T11:02:57.574Z,33.80
2018-05-08T11:05:25.189Z,33.80
2018-05-08T11:07:52.729Z,33.89
2018-05-08T11:10:20.290Z,34.00
2018-05-08T11:12:47.862Z,34.53
2018-05-08T11:15:15.493Z,33.89
2018-05-08T11:17:43.114Z,32.31
2018-05-08T11:20:10.677Z,31.04
2018-05-08T11:22:38.243Z,29.10
2018-05-08T11:25:05.792Z,26.99
2018-05-08T11:27:33.362Z,25.66
2018-05-08T11:30:00.939Z,24.76
2018-05-08T11:32:28.501Z,24.48
2018-05-08T11:34:56.198Z,24.73
2018-05-08T11:37:23.827Z,25.56
2018-05-08T11:39:51.389Z,26.69
2018-05-08T11:42:18.951Z,27.24
2018-05-08T11:44:46.547Z,27.06
2018-05-08T11:47:14.113Z,26.98
2018-05-08T11:49:41.711Z,26.69
2018-05-08T11:52:09.404Z,26.27
2018-05-08T11:54:37.027Z,25.92
2018-05-08T11:57:04.669Z,25.79
2018-05-08T11:59:32.241Z,25.29
2018-05-08T12:01:59.792Z,24.96
2018-05-08T12:04:27.513Z,24.58
2018-05-08T12:06:55.076Z,24.29
2018-05-08T12:09:22.624Z,24.04
2018-05-08T12:11:50.184Z,23.98
2018-05-08T12:14:17.775Z,23.62
2018-05-08T12:16:45.401Z,23.32
2018-05-08T12:19:13.021Z,23.41
2018-05-08T12:21:40.617Z,23.71
2018-05-08T12:24:08.254Z,23.82
2018-05-08T12:26:35.846Z,23.81
2018-05-08T12:29:03.421Z,23.71
2018-05-08T12:31:31.032Z,23.67
2018-05-08T12:33:58.648Z,23.78
2018-05-08T12:36:26.215Z,23.87
2018-05-08T12:38:53.849Z,24.01
2018-05-08T12:41:21.723Z,24.24
2018-05-08T12:43:49.043Z,24.44
2018-05-08T12:46:16.624Z,24.68
2018-05-08T12:48:44.180Z,25.01
2018-05-08T12:51:11.866Z,25.83
2018-05-08T12:53:39.439Z,27.58
2018-05-08T12:56:07.097Z,29.47
2018-05-08T12:58:34.651Z,31.65
2018-05-08T13:01:02.194Z,33.30
2018-05-08T13:03:29.773Z,34.68
2018-05-08T13:05:57.340Z,35.06
2018-05-08T13:08:24.962Z,35.24
2018-05-08T13:10:52.636Z,34.89
2018-05-08T13:13:20.265Z,34.27
2018-05-08T13:15:47.833Z,33.14
2018-05-08T13:18:15.395Z,32.28
2018-05-08T13:20:42.977Z,31.03
2018-05-08T13:23:10.530Z,30.53
2018-05-08T13:25:38.140Z,29.98
2018-05-08T13:28:05.732Z,29.68
2018-05-08T13:30:33.289Z,29.38
2018-05-08T13:33:00.949Z,29.31
2018-05-08T13:35:28.507Z,29.23
2018-05-08T13:37:56.085Z,28.95
2018-05-08T13:40:23.701Z,30.07
2018-05-08T13:42:51.333Z,31.70
2018-05-08T13:45:18.955Z,32.80
2018-05-08T13:47:46.532Z,33.72
2018-05-08T13:50:14.213Z,34.73
2018-05-08T13:52:41.746Z,35.35
2018-05-08T13:55:09.372Z,35.27
2018-05-08T13:57:37.005Z,34.56
2018-05-08T14:00:04.631Z,33.89
2018-05-08T14:02:32.190Z,32.98
2018-05-08T14:04:59.837Z,32.19
2018-05-08T14:07:27.465Z,31.51
2018-05-08T14:09:55.082Z,30.62
2018-05-08T14:12:22.706Z,29.79
2018-05-08T14:14:50.331Z,29.35
2018-05-08T14:17:17.945Z,28.96
2018-05-08T14:19:45.560Z,28.71
2018-05-08T14:22:13.187Z,28.65
2018-05-08T14:24:40.761Z,28.35
2018-05-08T14:27:08.497Z,28.03
2018-05-08T14:29:36.062Z,27.78
2018-05-08T14:32:03.673Z,27.48
2018-05-08T14:34:31.288Z,27.22
2018-05-08T14:36:58.857Z,27.09
2018-05-08T14:39:26.503Z,26.85
2018-05-08T14:41:54.113Z,26.62
2018-05-08T14:44:21.741Z,26.22
2018-05-08T14:46:49.403Z,26.06
2018-05-08T14:49:17.044Z,25.89
2018-05-08T14:51:44.585Z,25.80
2018-05-08T14:54:12.160Z,25.81
2018-05-08T14:56:39.753Z,25.80
2018-05-08T14:59:07.320Z,25.96
2018-05-08T15:01:34.879Z,26.18
2018-05-08T15:04:02.553Z,26.41
2018-05-08T15:06:30.180Z,26.44
2018-05-08T15:08:57.746Z,26.40
2018-05-08T15:11:25.369Z,26.39
2018-05-08T15:13:52.936Z,26.52
2018-05-08T15:16:20.501Z,26.61
2018-05-08T15:18:48.064Z,26.57
2018-05-08T15:21:15.763Z,26.63
2018-05-08T15:23:43.437Z,26.75
2018-05-08T15:26:11.000Z,26.83
2018-05-08T15:28:38.627Z,26.79
2018-05-08T15:31:06.185Z,26.67
2018-05-08T15:33:33.823Z,26.72
2018-05-08T15:36:01.393Z,26.60
2018-05-08T15:38:29.006Z,26.45
2018-05-08T15:40:56.633Z,26.43
2018-05-08T15:43:24.289Z,26.45
2018-05-08T15:45:51.860Z,26.41
2018-05-08T15:48:19.425Z,26.43
2018-05-08T15:50:47.020Z,26.39
2018-05-08T15:53:14.599Z,26.40
2018-05-08T15:55:42.249Z,26.34
2018-05-08T15:58:09.813Z,25.75
2018-05-08T16:00:37.374Z,25.17
2018-05-08T16:03:04.940Z,24.58
2018-05-08T16:05:32.568Z,24.44
2018-05-08T16:08:00.128Z,24.22
2018-05-08T16:10:27.693Z,24.02
2018-05-08T16:12:55.316Z,23.90
2018-05-08T16:15:22.873Z,23.68
2018-05-08T16:17:50.490Z,23.50
2018-05-08T16:20:18.066Z,23.28
2018-05-08T16:22:45.630Z,23.26
2018-05-08T16:25:13.255Z,23.18
2018-05-08T16:27:40.816Z,22.97
2018-05-08T16:30:08.469Z,22.99
2018-05-08T16:32:35.972Z,23.03
2018-05-08T16:35:03.543Z,23.00
2018-05-08T16:37:31.160Z,22.83
2018-05-08T16:39:58.719Z,22.63
2018-05-08T16:42:26.258Z,22.44
2018-05-08T16:44:53.885Z,22.55
2018-05-08T16:47:21.441Z,22.48
2018-05-08T16:49:49.007Z,22.39
2018-05-08T16:52:16.582Z,22.17
2018-05-08T16:54:44.188Z,22.09
2018-05-08T16:57:11.798Z,21.97
2018-05-08T16:59:39.359Z,21.86
2018-05-08T17:02:06.989Z,21.92
2018-05-08T17:04:34.635Z,21.93
2018-05-08T17:07:02.199Z,21.97
2018-05-08T17:09:29.752Z,22.01
2018-05-08T17:11:57.364Z,22.04
2018-05-08T17:14:24.921Z,21.98
2018-05-08T17:16:52.542Z,21.88
2018-05-08T17:19:20.191Z,21.81
2018-05-08T17:21:47.780Z,21.69
2018-05-08T17:24:15.403Z,21.58
2018-05-08T17:26:43.020Z,21.52
2018-05-08T17:29:10.636Z,21.34
2018-05-08T17:31:38.253Z,21.30
2018-05-08T17:34:05.869Z,21.18
2018-05-08T17:36:33.528Z,21.09
2018-05-08T17:39:01.085Z,20.99
2018-05-08T17:41:28.648Z,20.89
2018-05-08T17:43:56.208Z,20.70
2018-05-08T17:46:23.864Z,20.62
2018-05-08T17:48:51.487Z,20.55
2018-05-08T17:51:19.075Z,20.44
2018-05-08T17:53:46.641Z,20.22
2018-05-08T17:56:14.202Z,20.19
2018-05-08T17:58:41.775Z,20.17
2018-05-08T18:01:09.399Z,20.08
2018-05-08T18:03:37.072Z,19.94
2018-05-08T18:06:04.710Z,19.87
2018-05-08T18:08:32.273Z,19.78
2018-05-08T18:10:59.885Z,19.68
2018-05-08T18:13:27.525Z,19.56
2018-05-08T18:15:55.098Z,19.52
2018-05-08T18:18:22.727Z,19.46
2018-05-08T18:20:50.408Z,19.35
2018-05-08T18:23:18.023Z,19.29
2018-05-08T18:25:45.693Z,19.26
2018-05-08T18:28:13.310Z,19.20
2018-05-08T18:30:40.918Z,19.14
2018-05-08T18:33:08.480Z,19.12
2018-05-08T18:35:36.105Z,19.11
2018-05-08T18:38:03.727Z,19.10
2018-05-08T18:40:31.455Z,19.09
2018-05-08T18:42:59.082Z,19.06
2018-05-08T18:45:26.647Z,19.14
2018-05-08T18:47:54.218Z,19.13
2018-05-08T18:50:21.798Z,19.19
2018-05-08T18:52:49.442Z,19.18
2018-05-08T18:55:17.142Z,19.13
2018-05-08T18:57:44.708Z,19.18
2018-05-08T19:00:27.048Z,19.17
2018-05-08T19:02:54.620Z,19.23
2018-05-08T19:05:22.176Z,19.24
2018-05-08T19:07:49.753Z,19.18
2018-05-08T19:10:17.374Z,19.20
2018-05-08T19:12:44.944Z,19.19
2018-05-08T19:15:17.974Z,19.23
2018-05-08T19:17:45.556Z,19.26
2018-05-08T19:20:13.129Z,19.34
2018-05-08T19:22:40.703Z,19.38
2018-05-08T19:25:08.287Z,19.43
2018-05-08T19:27:35.941Z,19.48
2018-05-08T19:30:09.281Z,19.51
2018-05-08T19:32:36.865Z,19.49
2018-05-08T19:35:09.802Z,19.50
2018-05-08T19:37:43.006Z,19.53
2018-05-08T19:40:10.593Z,19.53
2018-05-08T19:42:38.195Z,19.56
2018-05-08T19:45:05.765Z,19.61
2018-05-08T19:47:33.397Z,19.65
2018-05-08T19:50:01.000Z,19.68
2018-05-08T19:52:28.667Z,19.72
2018-05-08T19:54:56.248Z,19.76
2018-05-08T19:57:23.883Z,19.79
2018-05-08T19:59:51.464Z,19.84
2018-05-08T20:02:19.037Z,19.80
2018-05-08T20:04:46.611Z,19.77
2018-05-08T20:07:14.241Z,19.76
2018-05-08T20:09:41.805Z,19.70
2018-05-08T20:12:09.419Z,19.62
2018-05-08T20:14:36.966Z,19.55
2018-05-08T20:17:04.585Z,19.56
2018-05-08T20:19:32.152Z,19.49
2018-05-08T20:21:59.712Z,19.47
2018-05-08T20:24:27.391Z,19.44
2018-05-08T20:26:54.975Z,19.41
2018-05-08T20:29:22.635Z,19.36
2018-05-08T20:31:50.185Z,19.37
2018-05-08T20:34:17.808Z,19.35
2018-05-08T20:36:45.433Z,19.34
2018-05-08T20:39:12.992Z,19.33
2018-05-08T20:41:40.625Z,19.32
2018-05-08T20:44:08.189Z,19.27
2018-05-08T20:46:35.820Z,19.25
2018-05-08T20:49:03.658Z,19.25
2018-05-08T20:51:31.229Z,19.20
2018-05-08T20:53:58.788Z,19.15
2018-05-08T20:56:26.352Z,19.17
2018-05-08T20:58:53.928Z,19.19
2018-05-08T21:01:21.522Z,19.17
2018-05-08T21:03:49.110Z,19.17
2018-05-08T21:06:16.654Z,19.18
2018-05-08T21:08:44.271Z,19.13
2018-05-08T21:11:11.861Z,19.15
2018-05-08T21:13:39.425Z,19.12
2018-05-08T21:16:07.053Z,19.13
2018-05-08T21:18:34.612Z,19.10
2018-05-08T21:21:02.200Z,19.03
2018-05-08T21:23:29.779Z,18.97
2018-05-08T21:25:57.396Z,18.87
2018-05-08T21:28:30.701Z,18.80
2018-05-08T21:31:03.841Z,18.70
2018-05-08T21:33:31.477Z,18.57
2018-05-08T21:35:59.045Z,18.53
2018-05-08T21:38:26.680Z,18.48
2018-05-08T21:40:54.244Z,18.45
2018-05-08T21:43:21.824Z,18.40
2018-05-08T21:45:49.459Z,18.34
2018-05-08T21:48:17.094Z,18.31
2018-05-08T21:50:44.724Z,18.26
2018-05-08T21:53:12.299Z,18.25
2018-05-08T21:55:39.878Z,18.24
2018-05-08T21:58:07.440Z,18.22
2018-05-08T22:00:35.012Z,18.19
2018-05-08T22:03:02.593Z,18.21
2018-05-08T22:05:30.208Z,18.16
2018-05-08T22:07:57.832Z,18.18
2018-05-08T22:10:25.412Z,18.16
2018-05-08T22:12:53.041Z,18.16
2018-05-08T22:15:20.604Z,18.15
2018-05-08T22:17:48.165Z,18.17
2018-05-08T22:20:15.764Z,18.16
2018-05-08T22:22:43.482Z,18.10
2018-05-08T22:25:11.047Z,18.08
2018-05-08T22:27:38.612Z,18.09
2018-05-08T22:30:06.179Z,18.08
2018-05-08T22:32:33.722Z,18.07
2018-05-08T22:35:01.325Z,18.06
2018-05-08T22:37:28.883Z,18.07
2018-05-08T22:39:56.500Z,18.06
2018-05-08T22:42:24.125Z,18.04
2018-05-08T22:44:51.697Z,18.03
2018-05-08T22:47:19.287Z,18.01
2018-05-08T22:49:46.914Z,18.01
2018-05-08T22:52:14.488Z,18.00
2018-05-08T22:54:42.053Z,17.98
2018-05-08T22:57:09.672Z,17.95
2018-05-08T22:59:37.289Z,17.93
2018-05-08T23:02:04.910Z,17.90
2018-05-08T23:04:32.484Z,17.90
2018-05-08T23:07:00.049Z,17.92
2018-05-08T23:09:27.686Z,17.93
2018-05-08T23:11:55.248Z,17.93
2018-05-08T23:14:22.912Z,17.94
2018-05-08T23:16:50.471Z,17.91
2018-05-08T23:19:18.033Z,17.84
2018-05-08T23:21:45.677Z,17.78
2018-05-08T23:24:13.240Z,17.76
2018-05-08T23:26:40.816Z,17.76
2018-05-08T23:29:08.380Z,17.75
2018-05-08T23:31:35.995Z,17.72
2018-05-08T23:34:03.571Z,17.70
2018-05-08T23:36:31.136Z,17.67
2018-05-08T23:38:58.769Z,17.66
2018-05-08T23:41:26.393Z,17.66
2018-05-08T23:43:53.972Z,17.66
2018-05-08T23:46:21.593Z,17.67
2018-05-08T23:48:49.229Z,17.60
2018-05-08T23:51:16.796Z,17.56
2018-05-08T23:53:44.368Z,17.53
2018-05-08T23:56:11.951Z,17.52
2018-05-08T23:58:39.518Z,17.52
